createdAt,value
2023-01-15T11:20:31.540Z,5.57
2023-01-15T11:23:07.050Z,5.76
2023-01-15T11:25:33.784Z,5.89
2023-01-15T11:28:03.475Z,5.98
2023-01-15T11:30:33.682Z,6.06
2023-01-15T11:33:05.483Z,6.12
2023-01-15T11:35:33.753Z,6.10
2023-01-15T11:38:05.392Z,6.16
2023-01-15T11:40:32.182Z,6.14
2023-01-15T11:43:17.478Z,6.19
2023-01-15T11:46:07.837Z,6.26
2023-01-15T11:49:02.430Z,6.27
2023-01-15T11:51:30.774Z,6.17
2023-01-15T11:54:03.609Z,6.27
2023-01-15T11:56:34.108Z,6.26
2023-01-15T11:59:10.545Z,6.32
2023-01-15T12:01:43.310Z,6.31
2023-01-15T12:04:25.194Z,6.29
2023-01-15T12:06:51.836Z,6.21
2023-01-15T12:09:24.895Z,6.21
2023-01-15T12:12:10.712Z,6.26
2023-01-15T12:15:06.115Z,6.27
2023-01-15T12:17:46.215Z,6.31
2023-01-15T12:20:21.988Z,6.31
2023-01-15T12:23:12.127Z,6.24
2023-01-15T12:25:41.395Z,6.30
2023-01-15T12:28:28.421Z,6.37
2023-01-15T12:31:02.072Z,6.44
2023-01-15T12:33:37.403Z,6.46
2023-01-15T12:36:10.343Z,6.54
2023-01-15T12:39:14.868Z,6.57
2023-01-15T12:42:02.650Z,6.56
2023-01-15T12:44:57.697Z,6.55
2023-01-15T12:47:44.380Z,6.44
2023-01-15T12:50:33.045Z,6.40
2023-01-15T12:53:07.039Z,6.46
2023-01-15T12:55:38.739Z,6.41
2023-01-15T12:58:13.541Z,6.42
2023-01-15T13:00:43.784Z,6.34
2023-01-15T13:03:17.102Z,6.38
2023-01-15T13:05:48.382Z,6.43
2023-01-15T13:08:31.071Z,6.41
2023-01-15T13:10:58.196Z,6.41
2023-01-15T13:13:29.888Z,6.37
2023-01-15T13:16:12.527Z,6.39
2023-01-15T13:19:05.936Z,6.50
2023-01-15T13:21:34.917Z,6.57
2023-01-15T13:24:17.074Z,6.60
2023-01-15T13:26:50.144Z,6.54
2023-01-15T13:29:30.454Z,6.68
2023-01-15T13:32:09.910Z,6.66
2023-01-15T13:35:14.824Z,6.65
2023-01-15T13:37:44.974Z,6.57
2023-01-15T13:40:38.372Z,6.57
2023-01-15T13:43:07.362Z,6.49
2023-01-15T13:45:36.881Z,6.52
2023-01-15T13:48:15.827Z,6.48
2023-01-15T13:50:57.847Z,6.57
2023-01-15T13:53:30.805Z,6.54
2023-01-15T13:56:02.526Z,6.52
2023-01-15T13:58:34.867Z,6.45
2023-01-15T14:01:10.043Z,6.42
2023-01-15T14:03:38.348Z,6.39
2023-01-15T14:06:08.057Z,6.40
2023-01-15T14:08:44.597Z,6.35
2023-01-15T14:11:35.687Z,6.32
2023-01-15T14:14:31.515Z,6.29
2023-01-15T14:17:06.835Z,6.23
2023-01-15T14:19:58.420Z,6.20
2023-01-15T14:22:30.958Z,6.21
2023-01-15T14:25:32.834Z,6.19
2023-01-15T14:28:22.369Z,6.14
2023-01-15T14:30:58.127Z,6.20
2023-01-15T14:33:34.652Z,6.19
2023-01-15T14:36:17.414Z,6.16
2023-01-15T14:38:51.935Z,6.06
2023-01-15T14:41:29.537Z,6.00
2023-01-15T14:43:59.550Z,5.99
2023-01-15T14:46:34.358Z,5.93
2023-01-15T14:49:01.854Z,5.91
2023-01-15T14:51:31.860Z,5.85
2023-01-15T14:54:06.552Z,5.87
2023-01-15T14:56:40.224Z,5.92
2023-01-15T14:59:27.985Z,5.97
2023-01-15T15:02:01.963Z,5.88
2023-01-15T15:04:39.724Z,5.95
2023-01-15T15:07:22.838Z,5.92
2023-01-15T15:10:01.230Z,5.95
2023-01-15T15:12:44.935Z,5.96
2023-01-15T15:15:15.151Z,5.91
2023-01-15T15:17:53.781Z,5.86
2023-01-15T15:20:39.673Z,5.80
2023-01-15T15:23:21.632Z,5.64
2023-01-15T15:25:56.096Z,5.70
2023-01-15T15:28:23.129Z,5.67
2023-01-15T15:30:50.360Z,5.69
2023-01-15T15:33:25.705Z,5.70
2023-01-15T15:35:58.451Z,5.68
2023-01-15T15:38:26.449Z,5.64
2023-01-15T15:41:02.468Z,5.64
2023-01-15T15:44:05.431Z,5.64
2023-01-15T15:46:51.213Z,5.54
2023-01-15T15:49:20.113Z,5.53
2023-01-15T15:51:50.025Z,5.52
2023-01-15T15:54:22.417Z,5.50
2023-01-15T15:57:07.221Z,5.41
2023-01-15T15:59:36.658Z,5.39
2023-01-15T16:02:26.058Z,5.39
2023-01-15T16:04:54.744Z,5.35
2023-01-15T16:07:33.612Z,5.33
2023-01-15T16:10:03.890Z,5.23
2023-01-15T16:12:33.483Z,5.16
2023-01-15T16:15:00.518Z,5.14
2023-01-15T16:17:28.229Z,5.14
2023-01-15T16:19:56.834Z,5.08
2023-01-15T16:22:23.655Z,5.11
2023-01-15T16:24:58.063Z,5.11
2023-01-15T16:27:33.955Z,5.00
2023-01-15T16:30:00.684Z,4.99
2023-01-15T16:32:29.523Z,5.04
2023-01-15T16:35:05.370Z,4.99
2023-01-15T16:37:32.590Z,4.98
2023-01-15T16:40:00.028Z,4.97
2023-01-15T16:42:34.257Z,5.03
2023-01-15T16:45:01.845Z,5.01
2023-01-15T16:47:33.269Z,4.96
2023-01-15T16:50:21.784Z,5.02
2023-01-15T16:52:56.756Z,4.89
2023-01-15T16:55:38.265Z,4.95
2023-01-15T16:58:16.357Z,4.88
2023-01-15T17:00:51.031Z,4.86
2023-01-15T17:03:23.021Z,4.91
2023-01-15T17:05:53.521Z,4.91
2023-01-15T17:08:27.319Z,4.85
2023-01-15T17:10:56.376Z,4.84
2023-01-15T17:13:29.139Z,4.81
2023-01-15T17:16:13.911Z,4.80
2023-01-15T17:18:40.558Z,4.77
2023-01-15T17:21:15.458Z,4.79
2023-01-15T17:23:42.970Z,4.79
2023-01-15T17:26:18.959Z,4.80
2023-01-15T17:28:46.452Z,4.87
2023-01-15T17:31:20.783Z,4.88
2023-01-15T17:33:51.768Z,4.84
2023-01-15T17:36:24.170Z,4.87
2023-01-15T17:38:52.165Z,4.89
2023-01-15T17:41:20.949Z,4.87
2023-01-15T17:43:47.877Z,4.85
2023-01-15T17:46:14.693Z,4.87
2023-01-15T17:48:41.668Z,4.85
2023-01-15T17:51:16.636Z,4.93
2023-01-15T17:53:43.477Z,4.99
2023-01-15T17:56:28.954Z,5.04
2023-01-15T17:59:34.049Z,5.12
2023-01-15T18:02:20.257Z,5.03
2023-01-15T18:05:07.489Z,5.15
2023-01-15T18:07:40.917Z,5.15
2023-01-15T18:10:17.395Z,5.11
2023-01-15T18:12:44.141Z,5.12
2023-01-15T18:15:11.047Z,5.07
2023-01-15T18:17:37.825Z,5.10
2023-01-15T18:20:04.995Z,5.10
2023-01-15T18:22:31.640Z,5.15
2023-01-15T18:24:58.442Z,5.14
2023-01-15T18:27:29.969Z,5.14
2023-01-15T18:29:57.327Z,5.11
2023-01-15T18:32:33.353Z,5.18
2023-01-15T18:35:00.425Z,5.22
2023-01-15T18:37:27.033Z,5.23
2023-01-15T18:39:53.622Z,5.22
2023-01-15T18:42:38.954Z,5.23
2023-01-15T18:45:25.271Z,5.21
2023-01-15T18:47:52.849Z,5.15
2023-01-15T18:50:19.781Z,5.07
2023-01-15T18:52:50.195Z,5.12
2023-01-15T18:55:22.669Z,5.05
2023-01-15T18:57:49.307Z,5.01
2023-01-15T19:00:16.434Z,5.03
2023-01-15T19:02:45.073Z,5.03
2023-01-15T19:05:13.159Z,5.05
2023-01-15T19:07:40.606Z,5.07
2023-01-15T19:10:07.552Z,5.20
2023-01-15T19:12:36.877Z,5.22
2023-01-15T19:15:23.722Z,5.27
2023-01-15T19:18:09.172Z,5.29
2023-01-15T19:20:37.887Z,5.30
2023-01-15T19:23:06.628Z,5.36
2023-01-15T19:25:44.408Z,5.36
2023-01-15T19:28:16.502Z,5.39
2023-01-15T19:31:05.060Z,5.38
2023-01-15T19:33:32.695Z,5.32
2023-01-15T19:35:59.459Z,5.36
2023-01-15T19:38:26.383Z,5.36
2023-01-15T19:40:53.127Z,5.32
2023-01-15T19:43:38.454Z,5.36
2023-01-15T19:46:24.387Z,5.38
2023-01-15T19:49:09.842Z,5.32
2023-01-15T19:51:56.651Z,5.29
2023-01-15T19:54:43.579Z,5.28
2023-01-15T19:57:10.433Z,5.28
2023-01-15T19:59:39.372Z,5.29
2023-01-15T20:02:05.983Z,5.36
2023-01-15T20:04:32.616Z,5.34
2023-01-15T20:06:59.319Z,5.37
2023-01-15T20:09:26.223Z,5.35
2023-01-15T20:12:11.386Z,5.29
2023-01-15T20:14:38.295Z,5.28
2023-01-15T20:17:04.855Z,5.25
2023-01-15T20:19:31.527Z,5.21
2023-01-15T20:21:58.856Z,5.20
2023-01-15T20:24:25.549Z,5.18
2023-01-15T20:26:52.111Z,5.13
2023-01-15T20:29:18.672Z,5.16
2023-01-15T20:31:45.301Z,5.16
2023-01-15T20:34:11.963Z,5.13
2023-01-15T20:36:38.802Z,5.01
2023-01-15T20:39:05.513Z,5.05
2023-01-15T20:41:50.721Z,5.09
2023-01-15T20:44:36.284Z,5.16
2023-01-15T20:47:23.022Z,5.20
2023-01-15T20:49:49.825Z,5.10
2023-01-15T20:52:16.397Z,5.13
2023-01-15T20:54:43.050Z,5.16
2023-01-15T20:57:09.692Z,5.22
2023-01-15T20:59:36.256Z,5.19
2023-01-15T21:02:02.868Z,5.24
2023-01-15T21:04:32.696Z,5.19
2023-01-15T21:06:59.310Z,5.16
2023-01-15T21:09:26.363Z,5.25
2023-01-15T21:11:52.945Z,5.20
2023-01-15T21:14:19.588Z,5.32
2023-01-15T21:16:46.204Z,5.27
2023-01-15T21:19:13.146Z,5.28
2023-01-15T21:21:40.650Z,5.23
2023-01-15T21:24:07.702Z,5.28
2023-01-15T21:26:42.580Z,5.28
2023-01-15T21:29:09.207Z,5.30
2023-01-15T21:31:35.987Z,5.29
2023-01-15T21:34:04.419Z,5.26
2023-01-15T21:36:31.513Z,5.22
2023-01-15T21:39:00.671Z,5.22
2023-01-15T21:41:46.509Z,5.18
2023-01-15T21:44:36.205Z,5.20
2023-01-15T21:47:05.475Z,5.21
2023-01-15T21:49:33.526Z,5.14
2023-01-15T21:52:01.400Z,5.13
2023-01-15T21:54:28.559Z,5.12
2023-01-15T21:56:55.626Z,5.05
2023-01-15T21:59:22.316Z,5.09
2023-01-15T22:01:52.147Z,5.11
2023-01-15T22:04:21.223Z,5.07
2023-01-15T22:06:47.943Z,5.13
2023-01-15T22:09:14.855Z,5.14
2023-01-15T22:11:44.339Z,5.15
2023-01-15T22:14:19.493Z,5.17
2023-01-15T22:16:47.099Z,5.16
2023-01-15T22:19:19.757Z,5.13
2023-01-15T22:21:52.535Z,5.16
2023-01-15T22:24:20.060Z,5.15
2023-01-15T22:26:54.432Z,5.14
2023-01-15T22:29:25.883Z,5.05
2023-01-15T22:31:53.100Z,5.00
2023-01-15T22:34:24.538Z,5.01
2023-01-15T22:36:52.048Z,5.13
2023-01-15T22:39:19.199Z,5.13
2023-01-15T22:42:10.613Z,5.12
2023-01-15T22:44:40.499Z,5.08
2023-01-15T22:47:07.290Z,5.12
2023-01-15T22:49:34.136Z,5.21
2023-01-15T22:52:07.858Z,5.13
2023-01-15T22:54:34.548Z,5.07
2023-01-15T22:57:05.228Z,5.12
2023-01-15T22:59:32.005Z,5.16
2023-01-15T23:01:58.983Z,5.13
2023-01-15T23:04:25.937Z,5.15
2023-01-15T23:06:54.724Z,5.12
2023-01-15T23:09:23.103Z,5.00
2023-01-15T23:11:51.698Z,4.96
2023-01-15T23:14:20.101Z,5.00
2023-01-15T23:16:47.319Z,4.93
2023-01-15T23:19:14.666Z,4.81
2023-01-15T23:21:41.655Z,4.88
2023-01-15T23:24:08.404Z,4.83
2023-01-15T23:26:35.381Z,4.96
2023-01-15T23:29:02.213Z,5.11
2023-01-15T23:31:29.328Z,4.90
2023-01-15T23:33:59.075Z,5.03
2023-01-15T23:36:26.356Z,4.98
2023-01-15T23:38:53.121Z,4.91
2023-01-15T23:41:43.026Z,5.02
2023-01-15T23:44:38.858Z,5.02
2023-01-15T23:47:07.682Z,5.06
2023-01-15T23:49:34.318Z,4.98
2023-01-15T23:52:01.177Z,4.99
2023-01-15T23:54:29.858Z,5.03
2023-01-15T23:56:57.970Z,4.97
2023-01-15T23:59:25.565Z,5.00
